createdAt,value
2023-01-02T00:02:50.495Z,2113
2023-01-02T00:08:09.552Z,2122
2023-01-02T00:13:27.752Z,2119
2023-01-02T00:18:46.372Z,2118
2023-01-02T00:24:05.141Z,2121
2023-01-02T00:29:23.647Z,2121
2023-01-02T00:34:42.161Z,2123
2023-01-02T00:40:00.645Z,2128
2023-01-02T00:45:18.858Z,2135
2023-01-02T00:50:37.491Z,2129
2023-01-02T00:55:56.074Z,2135
2023-01-02T01:01:14.477Z,2126
2023-01-02T01:06:33.779Z,2123
2023-01-02T01:11:52.199Z,2122
2023-01-02T01:17:10.695Z,2122
2023-01-02T01:22:29.193Z,2114
2023-01-02T01:27:48.251Z,2109
2023-01-02T01:33:07.009Z,2108
2023-01-02T01:38:25.248Z,2109
2023-01-02T01:43:43.723Z,2109
2023-01-02T01:49:01.919Z,2113
2023-01-02T01:54:20.738Z,2101
2023-01-02T01:59:39.010Z,2090
2023-01-02T02:04:57.515Z,2100
2023-01-02T02:10:16.031Z,2097
2023-01-02T02:15:34.603Z,2258
2023-01-02T02:20:53.099Z,2165
2023-01-02T02:26:11.657Z,2136
2023-01-02T02:31:30.213Z,2137
2023-01-02T02:36:48.245Z,2129
2023-01-02T02:42:06.750Z,2139
2023-01-02T02:47:24.952Z,2152
2023-01-02T02:52:43.732Z,2152
2023-01-02T02:58:02.510Z,2146
2023-01-02T03:03:21.267Z,2141
2023-01-02T03:08:39.904Z,2142
2023-01-02T03:13:58.415Z,2140
2023-01-02T03:19:16.729Z,2149
2023-01-02T03:24:35.211Z,2152
2023-01-02T03:29:54.007Z,2151
2023-01-02T03:34:57.129Z,2156
2023-01-02T03:40:15.949Z,2147
2023-01-02T03:45:34.443Z,2134
2023-01-02T03:50:52.657Z,2120
2023-01-02T03:56:11.154Z,2112
2023-01-02T04:01:29.720Z,2121
2023-01-02T04:06:48.302Z,2125
2023-01-02T04:12:07.113Z,2121
2023-01-02T04:17:25.886Z,2107
2023-01-02T04:22:44.283Z,2105
2023-01-02T04:28:03.025Z,2100
2023-01-02T04:33:21.557Z,2099
2023-01-02T04:38:40.418Z,2102
2023-01-02T04:43:58.605Z,2092
2023-01-02T04:49:17.420Z,2094
2023-01-02T04:54:35.432Z,2102
2023-01-02T04:59:53.913Z,2102
2023-01-02T05:05:12.451Z,2098
2023-01-02T05:10:31.269Z,2098
2023-01-02T05:15:50.071Z,2106
2023-01-02T05:21:08.850Z,2106
2023-01-02T05:26:27.340Z,2091
2023-01-02T05:31:46.094Z,2107
2023-01-02T05:37:04.614Z,2091
2023-01-02T05:42:22.811Z,2081
2023-01-02T05:47:41.036Z,2070
2023-01-02T05:52:59.842Z,2072
2023-01-02T05:58:18.662Z,2073
2023-01-02T06:03:37.165Z,2064
2023-01-02T06:08:55.517Z,2059
2023-01-02T06:14:14.010Z,2077
2023-01-02T06:19:32.217Z,2069
2023-01-02T06:24:50.448Z,2075
2023-01-02T06:30:08.596Z,2062
2023-01-02T06:35:26.785Z,2058
2023-01-02T06:40:29.514Z,2073
2023-01-02T06:45:47.748Z,2064
2023-01-02T06:50:50.839Z,2041
2023-01-02T06:56:09.785Z,2021
2023-01-02T07:01:28.781Z,2038
2023-01-02T07:06:47.914Z,2009
2023-01-02T07:12:06.192Z,2010
2023-01-02T07:17:24.391Z,2011
2023-01-02T07:22:42.929Z,2004
2023-01-02T07:28:01.435Z,1999
2023-01-02T07:33:20.163Z,1997
2023-01-02T07:38:38.971Z,1997
2023-01-02T07:43:57.817Z,1997
2023-01-02T07:49:15.779Z,2002
2023-01-02T07:54:34.260Z,2010
2023-01-02T07:59:52.213Z,2021
2023-01-02T08:05:11.909Z,2057
2023-01-02T08:10:30.102Z,2050
2023-01-02T08:15:48.326Z,2041
2023-01-02T08:21:06.271Z,1857
2023-01-02T08:26:24.755Z,1827
2023-01-02T08:31:43.935Z,1883
2023-01-02T08:37:02.661Z,1955
2023-01-02T08:42:21.140Z,1958
2023-01-02T08:47:39.682Z,1984
2023-01-02T08:52:58.767Z,2069
2023-01-02T08:58:17.263Z,2087
2023-01-02T09:03:35.654Z,2082
2023-01-02T09:08:54.131Z,2016
2023-01-02T09:14:12.814Z,1983
2023-01-02T09:19:31.316Z,1945
2023-01-02T09:24:49.539Z,1927
2023-01-02T09:30:08.063Z,1893
2023-01-02T09:35:27.063Z,1852
2023-01-02T09:40:45.384Z,1850
2023-01-02T09:46:03.637Z,1840
2023-01-02T09:51:21.987Z,1814
2023-01-02T09:56:40.222Z,1787
2023-01-02T10:01:58.727Z,1771
2023-01-02T10:07:17.453Z,1764
2023-01-02T10:12:20.028Z,1731
2023-01-02T10:17:38.527Z,1700
2023-01-02T10:22:56.448Z,1681
2023-01-02T10:28:14.933Z,1667
2023-01-02T10:33:23.320Z,1659
2023-01-02T10:38:41.851Z,1650
2023-01-02T10:44:00.194Z,1643
2023-01-02T10:49:18.931Z,1638
2023-01-02T10:54:38.397Z,1629
2023-01-02T11:00:11.217Z,1627
2023-01-02T11:05:15.082Z,1627
2023-01-02T11:10:33.866Z,1627
2023-01-02T11:15:52.099Z,1636
2023-01-02T11:21:10.481Z,1632
2023-01-02T11:26:29.360Z,1647
2023-01-02T11:31:50.175Z,1650
2023-01-02T11:37:19.341Z,1644
2023-01-02T11:42:21.979Z,1645
2023-01-02T11:47:40.440Z,1628
2023-01-02T11:52:58.947Z,1623
2023-01-02T11:58:17.162Z,1565
2023-01-02T12:03:41.219Z,1508
2023-01-02T12:08:50.741Z,1490
2023-01-02T12:14:10.162Z,1479
2023-01-02T12:19:28.101Z,1471
2023-01-02T12:24:46.894Z,1474
2023-01-02T12:30:05.368Z,1475
2023-01-02T12:35:23.572Z,1480
2023-01-02T12:40:41.744Z,1479
2023-01-02T12:46:00.374Z,1475
2023-01-02T12:51:18.802Z,1470
2023-01-02T12:56:37.567Z,1465
2023-01-02T13:01:55.961Z,1466
2023-01-02T13:07:14.252Z,1466
2023-01-02T13:12:17.144Z,1471
2023-01-02T13:17:35.698Z,1531
2023-01-02T13:22:55.876Z,1591
2023-01-02T13:28:14.613Z,1629
2023-01-02T13:33:32.856Z,1655
2023-01-02T13:38:51.085Z,1645
2023-01-02T13:44:09.614Z,1632
2023-01-02T13:49:28.146Z,1623
2023-01-02T13:54:46.737Z,1613
2023-01-02T14:00:04.927Z,1513
2023-01-02T14:05:23.457Z,1455
2023-01-02T14:10:41.392Z,1463
2023-01-02T14:15:59.627Z,1504
2023-01-02T14:21:17.984Z,1536
2023-01-02T14:26:36.486Z,1536
2023-01-02T14:31:39.114Z,1475
2023-01-02T14:36:57.734Z,1528
2023-01-02T14:42:15.728Z,1582
2023-01-02T14:47:34.474Z,1629
2023-01-02T14:52:53.371Z,1661
2023-01-02T14:58:12.229Z,1682
2023-01-02T15:03:31.138Z,1682
2023-01-02T15:08:50.719Z,1225
2023-01-02T15:14:08.654Z,1299
2023-01-02T15:19:26.851Z,1332
2023-01-02T15:24:45.088Z,1367
2023-01-02T15:30:03.747Z,1408
2023-01-02T15:35:22.259Z,1424
2023-01-02T15:40:40.612Z,1435
2023-01-02T15:45:59.163Z,1440
2023-01-02T15:51:17.729Z,1445
2023-01-02T15:56:36.227Z,1384
2023-01-02T16:01:54.794Z,1381
2023-01-02T16:07:13.420Z,1400
2023-01-02T16:12:31.691Z,1422
2023-01-02T16:17:50.334Z,1438
2023-01-02T16:23:08.526Z,1454
2023-01-02T16:28:34.567Z,1460
2023-01-02T16:33:55.170Z,1467
2023-01-02T16:39:13.929Z,1476
2023-01-02T16:44:32.827Z,1484
2023-01-02T16:49:51.490Z,1495
2023-01-02T16:55:09.992Z,1510
2023-01-02T17:00:38.345Z,1536
2023-01-02T17:06:02.826Z,1555
2023-01-02T17:11:21.129Z,1572
2023-01-02T17:16:39.765Z,1585
2023-01-02T17:21:58.264Z,1604
2023-01-02T17:27:16.480Z,1618
2023-01-02T17:32:35.078Z,1632
2023-01-02T17:37:53.452Z,1650
2023-01-02T17:43:11.925Z,1666
2023-01-02T17:48:29.980Z,1676
2023-01-02T17:53:48.868Z,1682
2023-01-02T17:59:07.354Z,1690
2023-01-02T18:04:26.159Z,1700
2023-01-02T18:09:44.509Z,1703
2023-01-02T18:15:35.169Z,1744
2023-01-02T18:20:53.680Z,1746
2023-01-02T18:26:12.187Z,1765
2023-01-02T18:31:30.729Z,1776
2023-01-02T18:36:48.939Z,1759
2023-01-02T18:42:07.386Z,1766
2023-01-02T18:47:25.874Z,1781
2023-01-02T18:52:44.638Z,1750
2023-01-02T18:58:03.098Z,1714
2023-01-02T19:03:21.956Z,1681
2023-01-02T19:08:40.044Z,1659
2023-01-02T19:13:59.125Z,1621
2023-01-02T19:19:17.146Z,1593
2023-01-02T19:24:35.468Z,1575
2023-01-02T19:29:53.681Z,1556
2023-01-02T19:35:11.884Z,1541
2023-01-02T19:40:30.509Z,1541
2023-01-02T19:45:48.835Z,1541
2023-01-02T19:51:07.369Z,1547
2023-01-02T19:56:26.137Z,1562
2023-01-02T20:01:44.473Z,1569
2023-01-02T20:07:03.272Z,1586
2023-01-02T20:12:22.035Z,1592
2023-01-02T20:17:45.673Z,1610
2023-01-02T20:23:04.166Z,1639
2023-01-02T20:28:07.557Z,1656
2023-01-02T20:33:26.322Z,1694
2023-01-02T20:38:44.850Z,1700
2023-01-02T20:44:03.670Z,1711
2023-01-02T20:49:21.865Z,1761
2023-01-02T20:54:40.339Z,1766
2023-01-02T20:59:59.081Z,1793
2023-01-02T21:05:17.510Z,1847
2023-01-02T21:10:35.985Z,1900
2023-01-02T21:15:54.992Z,1929
2023-01-02T21:21:13.465Z,1941
2023-01-02T21:26:31.688Z,1951
2023-01-02T21:31:50.243Z,1958
2023-01-02T21:36:53.994Z,1979
2023-01-02T21:42:12.523Z,2012
2023-01-02T21:47:31.022Z,2027
2023-01-02T21:52:49.566Z,2039
2023-01-02T21:58:13.171Z,2062
2023-01-02T22:03:33.434Z,2076
2023-01-02T22:08:52.468Z,2083
2023-01-02T22:14:10.393Z,2082
2023-01-02T22:19:28.762Z,2089
2023-01-02T22:24:47.290Z,2098
2023-01-02T22:30:26.138Z,2103
2023-01-02T22:35:53.272Z,2111
2023-01-02T22:41:12.145Z,2109
2023-01-02T22:46:30.645Z,2112
2023-01-02T22:52:06.351Z,2119
2023-01-02T22:57:25.828Z,2116
2023-01-02T23:02:44.610Z,2125
2023-01-02T23:08:03.302Z,2125
2023-01-02T23:13:22.360Z,2109
2023-01-02T23:18:40.838Z,2125
2023-01-02T23:23:59.667Z,2125
2023-01-02T23:29:18.137Z,2131
2023-01-02T23:34:36.648Z,2130
2023-01-02T23:39:55.141Z,2131
2023-01-02T23:45:13.377Z,2126
2023-01-02T23:50:31.850Z,2126
2023-01-02T23:55:35.041Z,2125
